Forside
METAR-TAF:

METAR-TAF

Lufthavne :

Lille, Frankrig

Breddekreds: 50-34N, længdekreds: 003-06E, højde: 48 m

Aktuelle vejr

Denne rapport blev lavet for 10 minutter siden, kl. 12:30 UTC
Vind 12 kt fra nordøst, varierende mellem nord og øst
Temperatur 9°C
Fugtighed 40%
Tryk 1029 hPa
Sigt 10 km eller mere
ingen skyer under 1500m og ingen cumulonimbus

METAR: LFQQ 311230Z AUTO 05012KT 010V080 CAVOK 09/M04 Q1029 NOSIG

Tid: 14:40 (12:40 UTC)

Vejrudsigter

Denne rapport blev lavet for 1 time og 40 minutter siden, kl. 11:00 UTC
Foreløbig gælder fra 31 på 12 UTC til 01 på 18 UTC
Vind 15 kt fra nordøst
Sigt 10 km eller mere
ingen skyer under 1500m og ingen cumulonimbus
ændring
fra 01 på 00 UTC til 01 på 03 UTC
Vind 2 kt fra varierende retninger
ændring
fra 01 på 10 UTC til 01 på 12 UTC
Vind 12 kt fra nordnordøst

TAF: LFQQ 311100Z 3112/0118 05015KT CAVOK BECMG 0100/0103 VRB02KT BECMG 0110/0112 03012KT

Vejrobservationer og prognoser fra mere end 4000 lufthavne (METAR og TAF).

De gule og røde prikker repræsenterer de meteorologiske stationer.

Flyt musen over at se navnet på stationen.

Så klik over at se vejr observationer og prognoser.

At skifte det kort: Klik på de grønne knapper med et sort kors for at zoome ind; på den grønne knap med en bindestreg for at zoome ud; eller på de grønne pile for tilstødende kort.


METAR-TAF: